Maghera, United Kingdom
Current Conditions -  °F | °C
As of 2:20 PM on Friday 19 Dec 2014 (Local Time) from EGAA Reporting Station
Few Clouds Few Clouds  
Wind Chill: 32°   Ceiling: Unl
Heat Index: 41°   Visibility: 6mi
Dew Point: 37°   Wind: 21mph
Humidity: 87%   Direction: 250°WSW
Pressure: 29.88"   Gusts: NA
Location:  54.84°N, 6.67°W
Report Text: EGAA 191420Z 25018KT 9999 FEW022 05/03 Q1012
Loading
Personal Weather Stations






























Interactive Weather Map New forecast layout! Learn more

10-Day Weather Forecast

Advertisements
Track Severe Weather on mobile